sensor_id;sensor_type;location;lat;lon;timestamp;P1;durP1;ratioP1;P2;durP2;ratioP2
38379;SDS011;38377;47.418;18.882;2023-12-07T00:01:06;2.33;;;1.97;;
38379;SDS011;38377;47.418;18.882;2023-12-07T00:03:31;2.87;;;1.70;;
38379;SDS011;38377;47.418;18.882;2023-12-07T00:05:57;1.80;;;1.30;;
38379;SDS011;38377;47.418;18.882;2023-12-07T00:08:23;2.23;;;1.70;;
38379;SDS011;38377;47.418;18.882;2023-12-07T00:10:48;2.70;;;1.90;;
38379;SDS011;38377;47.418;18.882;2023-12-07T00:13:14;2.33;;;1.97;;
38379;SDS011;38377;47.418;18.882;2023-12-07T00:15:40;2.57;;;1.73;;
38379;SDS011;38377;47.418;18.882;2023-12-07T00:18:06;2.60;;;2.10;;
38379;SDS011;38377;47.418;18.882;2023-12-07T00:20:32;2.53;;;2.10;;
38379;SDS011;38377;47.418;18.882;2023-12-07T00:22:57;2.43;;;1.70;;
38379;SDS011;38377;47.418;18.882;2023-12-07T00:25:23;2.83;;;1.80;;
38379;SDS011;38377;47.418;18.882;2023-12-07T00:27:49;2.30;;;1.67;;
38379;SDS011;38377;47.418;18.882;2023-12-07T00:30:15;2.27;;;1.70;;
38379;SDS011;38377;47.418;18.882;2023-12-07T00:32:41;2.50;;;2.10;;
38379;SDS011;38377;47.418;18.882;2023-12-07T00:35:09;2.80;;;2.17;;
38379;SDS011;38377;47.418;18.882;2023-12-07T00:37:35;2.10;;;1.40;;
38379;SDS011;38377;47.418;18.882;2023-12-07T00:40:02;2.67;;;1.80;;
38379;SDS011;38377;47.418;18.882;2023-12-07T00:42:29;3.90;;;1.90;;
38379;SDS011;38377;47.418;18.882;2023-12-07T00:44:55;2.57;;;1.93;;
38379;SDS011;38377;47.418;18.882;2023-12-07T00:47:21;3.73;;;2.80;;
38379;SDS011;38377;47.418;18.882;2023-12-07T00:49:46;3.60;;;2.90;;
38379;SDS011;38377;47.418;18.882;2023-12-07T00:52:12;4.50;;;3.53;;
38379;SDS011;38377;47.418;18.882;2023-12-07T00:54:38;4.93;;;4.20;;
38379;SDS011;38377;47.418;18.882;2023-12-07T00:57:05;5.03;;;4.10;;
38379;SDS011;38377;47.418;18.882;2023-12-07T00:59:31;4.57;;;3.73;;
38379;SDS011;38377;47.418;18.882;2023-12-07T01:02:02;5.27;;;4.13;;
38379;SDS011;38377;47.418;18.882;2023-12-07T01:04:28;4.90;;;3.90;;
38379;SDS011;38377;47.418;18.882;2023-12-07T01:06:54;5.00;;;3.83;;
38379;SDS011;38377;47.418;18.882;2023-12-07T01:09:20;4.20;;;3.60;;
38379;SDS011;38377;47.418;18.882;2023-12-07T01:11:47;6.30;;;4.97;;
38379;SDS011;38377;47.418;18.882;2023-12-07T01:14:12;4.93;;;4.17;;
38379;SDS011;38377;47.418;18.882;2023-12-07T01:16:38;4.97;;;3.80;;
38379;SDS011;38377;47.418;18.882;2023-12-07T01:19:04;5.80;;;3.90;;
38379;SDS011;38377;47.418;18.882;2023-12-07T01:21:30;4.27;;;3.50;;
38379;SDS011;38377;47.418;18.882;2023-12-07T01:23:56;4.57;;;3.67;;
38379;SDS011;38377;47.418;18.882;2023-12-07T01:26:23;3.87;;;3.47;;
38379;SDS011;38377;47.418;18.882;2023-12-07T01:28:49;3.50;;;3.20;;
38379;SDS011;38377;47.418;18.882;2023-12-07T01:31:15;4.97;;;3.43;;
38379;SDS011;38377;47.418;18.882;2023-12-07T01:33:42;4.30;;;3.77;;
38379;SDS011;38377;47.418;18.882;2023-12-07T01:36:08;4.33;;;3.80;;
38379;SDS011;38377;47.418;18.882;2023-12-07T01:38:34;4.50;;;4.03;;
38379;SDS011;38377;47.418;18.882;2023-12-07T01:40:59;4.13;;;3.73;;
38379;SDS011;38377;47.418;18.882;2023-12-07T01:43:25;5.90;;;4.60;;
38379;SDS011;38377;47.418;18.882;2023-12-07T01:45:51;4.77;;;4.00;;
38379;SDS011;38377;47.418;18.882;2023-12-07T01:48:20;4.70;;;3.97;;
38379;SDS011;38377;47.418;18.882;2023-12-07T01:50:47;4.80;;;3.60;;
38379;SDS011;38377;47.418;18.882;2023-12-07T01:53:13;4.00;;;3.37;;
38379;SDS011;38377;47.418;18.882;2023-12-07T01:55:40;3.60;;;3.07;;
38379;SDS011;38377;47.418;18.882;2023-12-07T01:58:06;4.80;;;3.63;;
38379;SDS011;38377;47.418;18.882;2023-12-07T02:00:33;4.03;;;3.37;;
38379;SDS011;38377;47.418;18.882;2023-12-07T02:02:59;4.10;;;3.20;;
38379;SDS011;38377;47.418;18.882;2023-12-07T02:05:29;5.07;;;3.80;;
38379;SDS011;38377;47.418;18.882;2023-12-07T02:07:55;5.10;;;3.83;;
38379;SDS011;38377;47.418;18.882;2023-12-07T02:10:20;4.13;;;3.20;;
38379;SDS011;38377;47.418;18.882;2023-12-07T02:12:47;4.27;;;3.77;;
38379;SDS011;38377;47.418;18.882;2023-12-07T02:15:13;4.77;;;4.10;;
38379;SDS011;38377;47.418;18.882;2023-12-07T02:21:05;4.97;;;3.72;;
38379;SDS011;38377;47.418;18.882;2023-12-07T02:23:39;6.67;;;4.60;;
38379;SDS011;38377;47.418;18.882;2023-12-07T02:26:20;7.10;;;5.57;;
38379;SDS011;38377;47.418;18.882;2023-12-07T02:28:53;8.97;;;6.00;;
38379;SDS011;38377;47.418;18.882;2023-12-07T02:31:19;7.87;;;6.07;;
38379;SDS011;38377;47.418;18.882;2023-12-07T02:33:45;8.03;;;6.17;;
38379;SDS011;38377;47.418;18.882;2023-12-07T02:36:11;8.50;;;6.50;;
38379;SDS011;38377;47.418;18.882;2023-12-07T02:38:40;7.73;;;5.80;;
38379;SDS011;38377;47.418;18.882;2023-12-07T02:41:06;8.80;;;6.50;;
38379;SDS011;38377;47.418;18.882;2023-12-07T02:43:33;9.27;;;7.40;;
38379;SDS011;38377;47.418;18.882;2023-12-07T02:45:59;9.97;;;7.63;;
38379;SDS011;38377;47.418;18.882;2023-12-07T02:48:25;11.20;;;8.53;;
38379;SDS011;38377;47.418;18.882;2023-12-07T02:50:51;11.53;;;7.60;;
38379;SDS011;38377;47.418;18.882;2023-12-07T02:53:17;14.33;;;9.37;;
38379;SDS011;38377;47.418;18.882;2023-12-07T02:55:43;12.63;;;9.37;;
38379;SDS011;38377;47.418;18.882;2023-12-07T02:58:09;13.40;;;9.37;;
38379;SDS011;38377;47.418;18.882;2023-12-07T03:00:34;12.73;;;10.27;;
38379;SDS011;38377;47.418;18.882;2023-12-07T03:03:00;14.13;;;9.80;;
38379;SDS011;38377;47.418;18.882;2023-12-07T03:05:26;14.03;;;9.87;;
38379;SDS011;38377;47.418;18.882;2023-12-07T03:07:52;14.20;;;9.43;;
38379;SDS011;38377;47.418;18.882;2023-12-07T03:10:17;14.73;;;10.43;;
38379;SDS011;38377;47.418;18.882;2023-12-07T03:12:43;14.50;;;10.60;;
38379;SDS011;38377;47.418;18.882;2023-12-07T03:15:09;14.47;;;10.00;;
38379;SDS011;38377;47.418;18.882;2023-12-07T03:17:35;15.57;;;10.97;;
38379;SDS011;38377;47.418;18.882;2023-12-07T03:20:01;15.60;;;11.47;;
38379;SDS011;38377;47.418;18.882;2023-12-07T03:22:27;16.17;;;11.27;;
38379;SDS011;38377;47.418;18.882;2023-12-07T03:24:52;15.13;;;11.27;;
38379;SDS011;38377;47.418;18.882;2023-12-07T03:27:18;17.17;;;11.63;;
38379;SDS011;38377;47.418;18.882;2023-12-07T03:29:44;17.40;;;11.73;;
38379;SDS011;38377;47.418;18.882;2023-12-07T03:32:20;17.70;;;11.97;;
38379;SDS011;38377;47.418;18.882;2023-12-07T03:34:45;17.50;;;12.40;;
38379;SDS011;38377;47.418;18.882;2023-12-07T03:37:11;18.27;;;12.47;;
38379;SDS011;38377;47.418;18.882;2023-12-07T03:39:37;17.93;;;11.70;;
38379;SDS011;38377;47.418;18.882;2023-12-07T03:42:03;18.20;;;12.63;;
38379;SDS011;38377;47.418;18.882;2023-12-07T03:44:29;18.73;;;12.17;;
38379;SDS011;38377;47.418;18.882;2023-12-07T03:46:55;18.33;;;12.37;;
38379;SDS011;38377;47.418;18.882;2023-12-07T03:49:21;20.13;;;14.03;;
38379;SDS011;38377;47.418;18.882;2023-12-07T03:51:47;20.47;;;13.57;;
38379;SDS011;38377;47.418;18.882;2023-12-07T03:54:13;20.10;;;13.23;;
38379;SDS011;38377;47.418;18.882;2023-12-07T03:56:39;19.53;;;13.20;;
38379;SDS011;38377;47.418;18.882;2023-12-07T03:59:05;21.60;;;14.37;;
38379;SDS011;38377;47.418;18.882;2023-12-07T04:01:31;18.93;;;13.03;;
38379;SDS011;38377;47.418;18.882;2023-12-07T04:03:57;20.73;;;12.77;;
38379;SDS011;38377;47.418;18.882;2023-12-07T04:06:24;20.03;;;12.50;;
38379;SDS011;38377;47.418;18.882;2023-12-07T04:08:50;19.13;;;12.90;;
38379;SDS011;38377;47.418;18.882;2023-12-07T04:11:16;16.97;;;12.10;;
38379;SDS011;38377;47.418;18.882;2023-12-07T04:13:42;19.43;;;12.23;;
38379;SDS011;38377;47.418;18.882;2023-12-07T04:16:09;19.57;;;12.77;;
38379;SDS011;38377;47.418;18.882;2023-12-07T04:18:35;19.03;;;12.80;;
38379;SDS011;38377;47.418;18.882;2023-12-07T04:21:01;20.27;;;12.07;;
38379;SDS011;38377;47.418;18.882;2023-12-07T04:23:28;18.10;;;11.77;;
38379;SDS011;38377;47.418;18.882;2023-12-07T04:25:53;20.57;;;11.83;;
38379;SDS011;38377;47.418;18.882;2023-12-07T04:28:19;16.67;;;11.57;;
38379;SDS011;38377;47.418;18.882;2023-12-07T04:30:45;16.17;;;10.30;;
38379;SDS011;38377;47.418;18.882;2023-12-07T04:33:11;15.87;;;10.40;;
38379;SDS011;38377;47.418;18.882;2023-12-07T04:35:36;15.10;;;9.63;;
38379;SDS011;38377;47.418;18.882;2023-12-07T04:38:02;13.53;;;10.13;;
38379;SDS011;38377;47.418;18.882;2023-12-07T04:40:28;12.73;;;8.90;;
38379;SDS011;38377;47.418;18.882;2023-12-07T04:42:53;13.27;;;8.90;;
38379;SDS011;38377;47.418;18.882;2023-12-07T04:45:19;11.33;;;8.33;;
38379;SDS011;38377;47.418;18.882;2023-12-07T04:47:45;11.00;;;7.83;;
38379;SDS011;38377;47.418;18.882;2023-12-07T04:50:11;10.20;;;7.90;;
38379;SDS011;38377;47.418;18.882;2023-12-07T04:52:38;11.10;;;7.40;;
38379;SDS011;38377;47.418;18.882;2023-12-07T04:55:05;9.27;;;6.90;;
38379;SDS011;38377;47.418;18.882;2023-12-07T04:57:31;8.43;;;6.47;;
38379;SDS011;38377;47.418;18.882;2023-12-07T04:59:58;9.83;;;6.27;;
38379;SDS011;38377;47.418;18.882;2023-12-07T05:02:24;9.73;;;7.00;;
38379;SDS011;38377;47.418;18.882;2023-12-07T05:04:50;8.60;;;6.37;;
38379;SDS011;38377;47.418;18.882;2023-12-07T05:07:15;9.00;;;7.13;;
38379;SDS011;38377;47.418;18.882;2023-12-07T05:09:42;9.37;;;6.70;;
38379;SDS011;38377;47.418;18.882;2023-12-07T05:12:11;8.57;;;6.60;;
38379;SDS011;38377;47.418;18.882;2023-12-07T05:14:36;7.93;;;6.60;;
38379;SDS011;38377;47.418;18.882;2023-12-07T05:17:03;8.90;;;6.27;;
38379;SDS011;38377;47.418;18.882;2023-12-07T05:19:30;9.60;;;6.67;;
38379;SDS011;38377;47.418;18.882;2023-12-07T05:21:56;8.60;;;6.47;;
38379;SDS011;38377;47.418;18.882;2023-12-07T05:24:21;8.53;;;6.40;;
38379;SDS011;38377;47.418;18.882;2023-12-07T05:26:47;9.33;;;7.07;;
38379;SDS011;38377;47.418;18.882;2023-12-07T05:29:14;12.60;;;8.60;;
38379;SDS011;38377;47.418;18.882;2023-12-07T05:31:40;14.73;;;10.20;;
38379;SDS011;38377;47.418;18.882;2023-12-07T05:34:09;14.63;;;10.23;;
38379;SDS011;38377;47.418;18.882;2023-12-07T05:36:36;31.87;;;17.67;;
38379;SDS011;38377;47.418;18.882;2023-12-07T05:39:01;52.63;;;29.17;;
38379;SDS011;38377;47.418;18.882;2023-12-07T05:41:27;52.37;;;29.73;;
38379;SDS011;38377;47.418;18.882;2023-12-07T05:43:53;49.40;;;28.03;;
38379;SDS011;38377;47.418;18.882;2023-12-07T05:46:19;41.27;;;23.90;;
38379;SDS011;38377;47.418;18.882;2023-12-07T05:48:45;40.97;;;23.50;;
38379;SDS011;38377;47.418;18.882;2023-12-07T05:51:15;28.43;;;18.33;;
38379;SDS011;38377;47.418;18.882;2023-12-07T05:53:42;27.17;;;15.57;;
38379;SDS011;38377;47.418;18.882;2023-12-07T05:56:09;27.37;;;16.50;;
38379;SDS011;38377;47.418;18.882;2023-12-07T05:58:35;26.17;;;14.87;;
38379;SDS011;38377;47.418;18.882;2023-12-07T06:01:01;32.70;;;17.30;;
38379;SDS011;38377;47.418;18.882;2023-12-07T06:03:28;31.50;;;16.47;;
38379;SDS011;38377;47.418;18.882;2023-12-07T06:05:54;29.10;;;16.17;;
38379;SDS011;38377;47.418;18.882;2023-12-07T06:08:20;33.53;;;17.40;;
38379;SDS011;38377;47.418;18.882;2023-12-07T06:10:46;32.23;;;16.33;;
38379;SDS011;38377;47.418;18.882;2023-12-07T06:13:13;21.30;;;13.27;;
38379;SDS011;38377;47.418;18.882;2023-12-07T06:15:39;24.60;;;14.87;;
38379;SDS011;38377;47.418;18.882;2023-12-07T06:18:05;25.63;;;14.43;;
38379;SDS011;38377;47.418;18.882;2023-12-07T06:20:32;22.03;;;13.70;;
38379;SDS011;38377;47.418;18.882;2023-12-07T06:22:58;24.43;;;13.63;;
38379;SDS011;38377;47.418;18.882;2023-12-07T06:25:24;21.63;;;12.70;;
38379;SDS011;38377;47.418;18.882;2023-12-07T06:27:50;28.87;;;14.87;;
38379;SDS011;38377;47.418;18.882;2023-12-07T06:30:16;27.30;;;15.87;;
38379;SDS011;38377;47.418;18.882;2023-12-07T06:32:43;23.50;;;14.30;;
38379;SDS011;38377;47.418;18.882;2023-12-07T06:35:09;26.23;;;14.70;;
38379;SDS011;38377;47.418;18.882;2023-12-07T06:37:37;23.87;;;14.77;;
38379;SDS011;38377;47.418;18.882;2023-12-07T06:40:03;24.93;;;14.77;;
38379;SDS011;38377;47.418;18.882;2023-12-07T06:42:29;25.40;;;15.00;;
38379;SDS011;38377;47.418;18.882;2023-12-07T06:44:55;24.67;;;14.60;;
38379;SDS011;38377;47.418;18.882;2023-12-07T06:47:21;26.77;;;15.50;;
38379;SDS011;38377;47.418;18.882;2023-12-07T06:49:46;26.33;;;14.53;;
38379;SDS011;38377;47.418;18.882;2023-12-07T06:52:12;27.27;;;15.93;;
38379;SDS011;38377;47.418;18.882;2023-12-07T06:54:38;31.23;;;16.23;;
38379;SDS011;38377;47.418;18.882;2023-12-07T06:57:04;30.73;;;16.90;;
38379;SDS011;38377;47.418;18.882;2023-12-07T06:59:32;35.53;;;20.13;;
38379;SDS011;38377;47.418;18.882;2023-12-07T07:01:58;30.13;;;16.73;;
38379;SDS011;38377;47.418;18.882;2023-12-07T07:04:23;31.73;;;17.87;;
38379;SDS011;38377;47.418;18.882;2023-12-07T07:06:49;31.83;;;17.77;;
38379;SDS011;38377;47.418;18.882;2023-12-07T07:09:16;26.33;;;16.03;;
38379;SDS011;38377;47.418;18.882;2023-12-07T07:11:43;27.23;;;15.47;;
38379;SDS011;38377;47.418;18.882;2023-12-07T07:14:15;27.97;;;17.63;;
38379;SDS011;38377;47.418;18.882;2023-12-07T07:16:41;31.30;;;16.93;;
38379;SDS011;38377;47.418;18.882;2023-12-07T07:19:07;29.60;;;16.07;;
38379;SDS011;38377;47.418;18.882;2023-12-07T07:21:33;30.50;;;17.53;;
38379;SDS011;38377;47.418;18.882;2023-12-07T07:23:59;32.37;;;17.93;;
38379;SDS011;38377;47.418;18.882;2023-12-07T07:26:25;28.53;;;18.03;;
38379;SDS011;38377;47.418;18.882;2023-12-07T07:28:52;28.93;;;16.53;;
38379;SDS011;38377;47.418;18.882;2023-12-07T07:31:17;27.50;;;15.47;;
38379;SDS011;38377;47.418;18.882;2023-12-07T07:33:44;27.70;;;15.87;;
38379;SDS011;38377;47.418;18.882;2023-12-07T07:36:12;27.37;;;15.87;;
38379;SDS011;38377;47.418;18.882;2023-12-07T07:38:40;29.20;;;15.77;;
38379;SDS011;38377;47.418;18.882;2023-12-07T07:41:06;29.13;;;16.87;;
38379;SDS011;38377;47.418;18.882;2023-12-07T07:43:31;26.37;;;15.00;;
38379;SDS011;38377;47.418;18.882;2023-12-07T07:45:59;25.97;;;14.43;;
38379;SDS011;38377;47.418;18.882;2023-12-07T07:48:25;26.23;;;14.73;;
38379;SDS011;38377;47.418;18.882;2023-12-07T07:50:51;23.60;;;14.57;;
38379;SDS011;38377;47.418;18.882;2023-12-07T07:53:17;26.67;;;15.27;;
38379;SDS011;38377;47.418;18.882;2023-12-07T07:55:43;23.57;;;14.57;;
38379;SDS011;38377;47.418;18.882;2023-12-07T07:58:09;25.23;;;16.00;;
38379;SDS011;38377;47.418;18.882;2023-12-07T08:00:35;25.83;;;15.97;;
38379;SDS011;38377;47.418;18.882;2023-12-07T08:03:01;26.00;;;15.97;;
38379;SDS011;38377;47.418;18.882;2023-12-07T08:05:26;25.97;;;15.97;;
38379;SDS011;38377;47.418;18.882;2023-12-07T08:07:52;24.93;;;15.67;;
38379;SDS011;38377;47.418;18.882;2023-12-07T08:10:18;25.00;;;14.57;;
38379;SDS011;38377;47.418;18.882;2023-12-07T08:12:44;21.67;;;13.80;;
38379;SDS011;38377;47.418;18.882;2023-12-07T08:15:10;27.20;;;14.70;;
38379;SDS011;38377;47.418;18.882;2023-12-07T08:17:39;25.03;;;14.20;;
38379;SDS011;38377;47.418;18.882;2023-12-07T08:20:09;24.80;;;14.50;;
38379;SDS011;38377;47.418;18.882;2023-12-07T08:22:39;25.67;;;15.57;;
38379;SDS011;38377;47.418;18.882;2023-12-07T08:25:06;25.13;;;14.27;;
38379;SDS011;38377;47.418;18.882;2023-12-07T08:27:33;26.20;;;16.63;;
38379;SDS011;38377;47.418;18.882;2023-12-07T08:29:59;28.20;;;15.90;;
38379;SDS011;38377;47.418;18.882;2023-12-07T08:32:25;24.10;;;16.07;;
38379;SDS011;38377;47.418;18.882;2023-12-07T08:34:51;24.90;;;15.53;;
38379;SDS011;38377;47.418;18.882;2023-12-07T08:37:17;23.83;;;15.57;;
38379;SDS011;38377;47.418;18.882;2023-12-07T08:39:43;23.00;;;14.80;;
38379;SDS011;38377;47.418;18.882;2023-12-07T08:42:09;22.53;;;13.50;;
38379;SDS011;38377;47.418;18.882;2023-12-07T08:44:35;24.67;;;15.43;;
38379;SDS011;38377;47.418;18.882;2023-12-07T08:47:01;25.00;;;14.30;;
38379;SDS011;38377;47.418;18.882;2023-12-07T08:49:27;23.73;;;14.80;;
38379;SDS011;38377;47.418;18.882;2023-12-07T08:51:53;21.90;;;14.17;;
38379;SDS011;38377;47.418;18.882;2023-12-07T08:54:19;19.67;;;13.07;;
38379;SDS011;38377;47.418;18.882;2023-12-07T08:56:45;22.87;;;13.83;;
38379;SDS011;38377;47.418;18.882;2023-12-07T08:59:10;23.67;;;13.93;;
38379;SDS011;38377;47.418;18.882;2023-12-07T09:01:36;23.80;;;14.37;;
38379;SDS011;38377;47.418;18.882;2023-12-07T09:04:19;18.87;;;13.13;;
38379;SDS011;38377;47.418;18.882;2023-12-07T09:06:45;25.13;;;15.30;;
38379;SDS011;38377;47.418;18.882;2023-12-07T09:09:11;22.97;;;14.20;;
38379;SDS011;38377;47.418;18.882;2023-12-07T09:11:37;22.70;;;13.43;;
38379;SDS011;38377;47.418;18.882;2023-12-07T09:14:03;20.67;;;13.70;;
38379;SDS011;38377;47.418;18.882;2023-12-07T09:16:28;20.33;;;13.23;;
38379;SDS011;38377;47.418;18.882;2023-12-07T09:18:54;21.77;;;12.80;;
38379;SDS011;38377;47.418;18.882;2023-12-07T09:21:21;19.17;;;12.87;;
38379;SDS011;38377;47.418;18.882;2023-12-07T09:23:46;21.83;;;14.00;;
38379;SDS011;38377;47.418;18.882;2023-12-07T09:26:12;23.03;;;14.17;;
38379;SDS011;38377;47.418;18.882;2023-12-07T09:28:38;22.20;;;13.80;;
38379;SDS011;38377;47.418;18.882;2023-12-07T09:31:04;19.53;;;12.80;;
38379;SDS011;38377;47.418;18.882;2023-12-07T09:33:31;22.67;;;13.97;;
38379;SDS011;38377;47.418;18.882;2023-12-07T09:35:56;21.97;;;13.17;;
38379;SDS011;38377;47.418;18.882;2023-12-07T09:38:22;21.23;;;13.60;;
38379;SDS011;38377;47.418;18.882;2023-12-07T09:40:52;20.43;;;12.83;;
38379;SDS011;38377;47.418;18.882;2023-12-07T09:43:18;20.37;;;12.40;;
38379;SDS011;38377;47.418;18.882;2023-12-07T09:45:44;21.63;;;12.87;;
38379;SDS011;38377;47.418;18.882;2023-12-07T09:48:12;17.57;;;12.40;;
38379;SDS011;38377;47.418;18.882;2023-12-07T09:50:38;21.77;;;14.47;;
38379;SDS011;38377;47.418;18.882;2023-12-07T09:53:04;20.07;;;13.53;;
38379;SDS011;38377;47.418;18.882;2023-12-07T09:55:29;20.67;;;13.10;;
38379;SDS011;38377;47.418;18.882;2023-12-07T09:57:56;20.93;;;13.60;;
38379;SDS011;38377;47.418;18.882;2023-12-07T10:00:23;19.10;;;12.90;;
38379;SDS011;38377;47.418;18.882;2023-12-07T10:02:49;18.13;;;12.07;;
38379;SDS011;38377;47.418;18.882;2023-12-07T10:05:15;17.23;;;12.13;;
38379;SDS011;38377;47.418;18.882;2023-12-07T10:07:45;19.37;;;12.17;;
38379;SDS011;38377;47.418;18.882;2023-12-07T10:10:15;20.02;;;12.68;;
38379;SDS011;38377;47.418;18.882;2023-12-07T10:15:17;16.73;;;11.97;;
38379;SDS011;38377;47.418;18.882;2023-12-07T10:20:17;17.20;;;11.63;;
38379;SDS011;38377;47.418;18.882;2023-12-07T10:22:47;17.53;;;11.63;;
38379;SDS011;38377;47.418;18.882;2023-12-07T10:25:13;25.73;;;14.90;;
38379;SDS011;38377;47.418;18.882;2023-12-07T10:27:42;18.47;;;12.73;;
38379;SDS011;38377;47.418;18.882;2023-12-07T10:30:09;17.90;;;12.43;;
38379;SDS011;38377;47.418;18.882;2023-12-07T10:32:36;19.37;;;13.13;;
38379;SDS011;38377;47.418;18.882;2023-12-07T10:35:03;22.57;;;13.80;;
38379;SDS011;38377;47.418;18.882;2023-12-07T10:37:32;19.90;;;13.13;;
38379;SDS011;38377;47.418;18.882;2023-12-07T10:39:59;22.20;;;14.50;;
38379;SDS011;38377;47.418;18.882;2023-12-07T10:42:24;22.93;;;14.37;;
38379;SDS011;38377;47.418;18.882;2023-12-07T10:44:53;22.87;;;15.60;;
38379;SDS011;38377;47.418;18.882;2023-12-07T10:47:22;21.73;;;15.00;;
38379;SDS011;38377;47.418;18.882;2023-12-07T10:49:50;24.23;;;15.67;;
38379;SDS011;38377;47.418;18.882;2023-12-07T10:52:20;24.30;;;16.02;;
38379;SDS011;38377;47.418;18.882;2023-12-07T10:57:36;25.07;;;16.13;;
38379;SDS011;38377;47.418;18.882;2023-12-07T11:00:02;27.73;;;17.63;;
38379;SDS011;38377;47.418;18.882;2023-12-07T11:02:32;28.17;;;18.03;;
38379;SDS011;38377;47.418;18.882;2023-12-07T11:05:00;26.77;;;17.13;;
38379;SDS011;38377;47.418;18.882;2023-12-07T11:07:27;25.57;;;17.73;;
38379;SDS011;38377;47.418;18.882;2023-12-07T11:10:05;28.20;;;18.17;;
38379;SDS011;38377;47.418;18.882;2023-12-07T11:12:45;27.47;;;17.93;;
38379;SDS011;38377;47.418;18.882;2023-12-07T11:15:18;28.83;;;18.08;;
38379;SDS011;38377;47.418;18.882;2023-12-07T11:17:47;33.13;;;20.33;;
38379;SDS011;38377;47.418;18.882;2023-12-07T11:20:21;32.60;;;20.27;;
38379;SDS011;38377;47.418;18.882;2023-12-07T11:22:47;32.87;;;19.93;;
38379;SDS011;38377;47.418;18.882;2023-12-07T11:25:14;36.87;;;21.97;;
38379;SDS011;38377;47.418;18.882;2023-12-07T11:27:40;38.70;;;23.30;;
38379;SDS011;38377;47.418;18.882;2023-12-07T11:30:12;37.97;;;23.47;;
38379;SDS011;38377;47.418;18.882;2023-12-07T11:32:42;39.33;;;23.02;;
38379;SDS011;38377;47.418;18.882;2023-12-07T11:35:11;37.37;;;22.37;;
38379;SDS011;38377;47.418;18.882;2023-12-07T11:40:42;44.70;;;26.50;;
38379;SDS011;38377;47.418;18.882;2023-12-07T11:43:18;41.97;;;25.90;;
38379;SDS011;38377;47.418;18.882;2023-12-07T11:45:56;46.73;;;28.30;;
38379;SDS011;38377;47.418;18.882;2023-12-07T11:48:21;43.50;;;26.80;;
38379;SDS011;38377;47.418;18.882;2023-12-07T11:50:54;44.57;;;25.73;;
38379;SDS011;38377;47.418;18.882;2023-12-07T11:53:28;43.13;;;24.97;;
38379;SDS011;38377;47.418;18.882;2023-12-07T11:55:55;40.45;;;24.70;;
38379;SDS011;38377;47.418;18.882;2023-12-07T11:58:24;43.93;;;25.43;;
38379;SDS011;38377;47.418;18.882;2023-12-07T12:00:50;42.33;;;25.50;;
38379;SDS011;38377;47.418;18.882;2023-12-07T12:03:18;41.67;;;24.50;;
38379;SDS011;38377;47.418;18.882;2023-12-07T12:05:45;41.93;;;25.60;;
38379;SDS011;38377;47.418;18.882;2023-12-07T12:08:11;39.37;;;24.90;;
38379;SDS011;38377;47.418;18.882;2023-12-07T12:10:40;44.73;;;24.83;;
38379;SDS011;38377;47.418;18.882;2023-12-07T12:13:07;42.70;;;24.58;;
38379;SDS011;38377;47.418;18.882;2023-12-07T12:15:34;48.67;;;27.30;;
38379;SDS011;38377;47.418;18.882;2023-12-07T12:18:00;43.70;;;25.17;;
38379;SDS011;38377;47.418;18.882;2023-12-07T12:20:27;43.13;;;24.77;;
38379;SDS011;38377;47.418;18.882;2023-12-07T12:22:54;46.33;;;26.77;;
38379;SDS011;38377;47.418;18.882;2023-12-07T12:25:29;42.57;;;25.77;;
38379;SDS011;38377;47.418;18.882;2023-12-07T12:27:56;43.80;;;25.67;;
38379;SDS011;38377;47.418;18.882;2023-12-07T12:30:24;42.53;;;24.90;;
38379;SDS011;38377;47.418;18.882;2023-12-07T12:32:50;42.03;;;25.77;;
38379;SDS011;38377;47.418;18.882;2023-12-07T12:35:16;45.97;;;26.77;;
38379;SDS011;38377;47.418;18.882;2023-12-07T12:37:46;42.67;;;24.43;;
38379;SDS011;38377;47.418;18.882;2023-12-07T12:40:17;49.23;;;26.67;;
38379;SDS011;38377;47.418;18.882;2023-12-07T12:42:47;44.47;;;25.50;;
38379;SDS011;38377;47.418;18.882;2023-12-07T12:45:17;41.43;;;25.80;;
38379;SDS011;38377;47.418;18.882;2023-12-07T12:47:44;44.30;;;26.40;;
38379;SDS011;38377;47.418;18.882;2023-12-07T12:50:11;39.87;;;25.50;;
38379;SDS011;38377;47.418;18.882;2023-12-07T12:52:57;46.07;;;27.53;;
38379;SDS011;38377;47.418;18.882;2023-12-07T12:55:25;41.33;;;24.27;;
38379;SDS011;38377;47.418;18.882;2023-12-07T12:57:51;42.17;;;25.47;;
38379;SDS011;38377;47.418;18.882;2023-12-07T13:00:17;40.53;;;25.60;;
38379;SDS011;38377;47.418;18.882;2023-12-07T13:02:44;42.47;;;27.23;;
38379;SDS011;38377;47.418;18.882;2023-12-07T13:05:10;41.93;;;24.97;;
38379;SDS011;38377;47.418;18.882;2023-12-07T13:07:35;42.43;;;25.00;;
38379;SDS011;38377;47.418;18.882;2023-12-07T13:10:02;44.80;;;28.43;;
38379;SDS011;38377;47.418;18.882;2023-12-07T13:12:28;45.03;;;25.60;;
38379;SDS011;38377;47.418;18.882;2023-12-07T13:14:55;42.93;;;26.27;;
38379;SDS011;38377;47.418;18.882;2023-12-07T13:17:21;44.17;;;27.07;;
38379;SDS011;38377;47.418;18.882;2023-12-07T13:19:49;56.33;;;30.03;;
38379;SDS011;38377;47.418;18.882;2023-12-07T13:22:15;49.43;;;28.90;;
38379;SDS011;38377;47.418;18.882;2023-12-07T13:24:40;52.17;;;28.77;;
38379;SDS011;38377;47.418;18.882;2023-12-07T13:27:06;49.37;;;27.67;;
38379;SDS011;38377;47.418;18.882;2023-12-07T13:29:32;49.37;;;29.27;;
38379;SDS011;38377;47.418;18.882;2023-12-07T13:31:57;46.47;;;28.90;;
38379;SDS011;38377;47.418;18.882;2023-12-07T13:34:23;48.27;;;28.30;;
38379;SDS011;38377;47.418;18.882;2023-12-07T13:36:51;53.60;;;31.03;;
38379;SDS011;38377;47.418;18.882;2023-12-07T13:39:17;46.23;;;28.13;;
38379;SDS011;38377;47.418;18.882;2023-12-07T13:41:45;52.87;;;29.67;;
38379;SDS011;38377;47.418;18.882;2023-12-07T13:44:14;54.07;;;30.67;;
38379;SDS011;38377;47.418;18.882;2023-12-07T13:46:43;48.93;;;28.40;;
38379;SDS011;38377;47.418;18.882;2023-12-07T13:49:09;53.87;;;30.40;;
38379;SDS011;38377;47.418;18.882;2023-12-07T13:51:37;56.57;;;31.27;;
38379;SDS011;38377;47.418;18.882;2023-12-07T13:54:03;59.03;;;31.57;;
38379;SDS011;38377;47.418;18.882;2023-12-07T13:56:29;59.13;;;32.53;;
38379;SDS011;38377;47.418;18.882;2023-12-07T13:58:54;57.97;;;30.90;;
38379;SDS011;38377;47.418;18.882;2023-12-07T14:01:21;57.10;;;32.03;;
38379;SDS011;38377;47.418;18.882;2023-12-07T14:03:46;59.97;;;32.40;;
38379;SDS011;38377;47.418;18.882;2023-12-07T14:06:21;59.87;;;33.50;;
38379;SDS011;38377;47.418;18.882;2023-12-07T14:08:48;67.67;;;36.03;;
38379;SDS011;38377;47.418;18.882;2023-12-07T14:11:14;59.87;;;32.50;;
38379;SDS011;38377;47.418;18.882;2023-12-07T14:13:41;59.97;;;30.83;;
38379;SDS011;38377;47.418;18.882;2023-12-07T14:16:07;59.70;;;32.10;;
38379;SDS011;38377;47.418;18.882;2023-12-07T14:18:33;56.77;;;32.67;;
38379;SDS011;38377;47.418;18.882;2023-12-07T14:20:59;61.87;;;33.37;;
38379;SDS011;38377;47.418;18.882;2023-12-07T14:23:25;65.60;;;34.23;;
38379;SDS011;38377;47.418;18.882;2023-12-07T14:25:51;55.13;;;30.83;;
38379;SDS011;38377;47.418;18.882;2023-12-07T14:28:17;58.40;;;31.23;;